createdAt,value
2017-09-04T19:42:02.593Z,46.75
2017-09-04T19:44:38.397Z,45.78
2017-09-04T19:47:10.822Z,45.31
2017-09-04T19:49:45.683Z,45.06
2017-09-04T19:52:17.282Z,44.87
2017-09-04T19:54:49.033Z,44.79
2017-09-04T19:57:20.869Z,44.71
2017-09-04T19:59:52.752Z,44.61
2017-09-04T20:02:24.789Z,44.61
2017-09-04T20:04:56.741Z,44.54
2017-09-04T20:07:28.907Z,44.55
2017-09-04T20:10:07.246Z,44.52
2017-09-04T20:12:47.075Z,44.47
2017-09-04T20:15:22.638Z,44.38
2017-09-04T20:17:54.856Z,44.38
2017-09-04T20:20:26.577Z,44.39
2017-09-04T20:22:58.120Z,44.39
2017-09-04T20:25:29.999Z,44.41
2017-09-04T20:28:01.588Z,44.40
2017-09-04T20:30:34.797Z,44.34
2017-09-04T20:33:08.329Z,44.35
2017-09-04T20:35:42.936Z,44.35
2017-09-04T20:38:14.810Z,44.36
2017-09-04T20:40:47.834Z,44.34
2017-09-04T20:43:21.893Z,44.34
2017-09-04T20:45:54.270Z,44.32
2017-09-04T20:48:26.712Z,44.30
2017-09-04T20:50:58.526Z,44.34
2017-09-04T20:53:29.804Z,44.32
2017-09-04T20:56:02.133Z,44.29
2017-09-04T20:58:34.309Z,44.29
2017-09-04T21:01:06.002Z,44.33
2017-09-04T21:03:40.118Z,44.32
2017-09-04T21:06:12.374Z,44.30
2017-09-04T21:08:45.590Z,44.25
2017-09-04T21:11:19.660Z,44.28
2017-09-04T21:13:51.917Z,44.30
2017-09-04T21:16:24.550Z,44.29
2017-09-04T21:18:57.108Z,44.31
2017-09-04T21:21:28.736Z,44.31
2017-09-04T21:24:00.718Z,44.34
2017-09-04T21:26:32.369Z,44.33
2017-09-04T21:29:04.108Z,44.29
2017-09-04T21:31:35.507Z,44.29
2017-09-04T21:34:08.048Z,44.31
2017-09-04T21:36:42.917Z,44.29
2017-09-04T21:39:15.822Z,44.30
2017-09-04T21:41:47.296Z,44.28
2017-09-04T21:44:19.385Z,44.29
2017-09-04T21:46:50.725Z,44.33
2017-09-04T21:49:22.463Z,44.34
2017-09-04T21:51:54.625Z,44.37
2017-09-04T21:54:26.389Z,44.32
2017-09-04T21:56:57.791Z,44.33
2017-09-04T21:59:29.677Z,44.34
2017-09-04T22:02:01.493Z,44.32
2017-09-04T22:04:33.903Z,44.37
2017-09-04T22:07:07.109Z,44.34
2017-09-04T22:09:41.138Z,44.36
2017-09-04T22:12:13.164Z,44.33
2017-09-04T22:14:46.613Z,44.30
2017-09-04T22:17:19.281Z,44.35
2017-09-04T22:19:51.555Z,38.45
2017-09-04T22:22:24.895Z,40.01
2017-09-04T22:24:56.426Z,41.50
2017-09-04T22:27:31.601Z,42.13
2017-09-04T22:30:05.785Z,41.97
2017-09-04T22:32:41.302Z,42.08
2017-09-04T22:35:13.941Z,42.22
2017-09-04T22:37:46.279Z,42.57
2017-09-04T22:40:17.981Z,42.64
2017-09-04T22:42:49.740Z,42.65
2017-09-04T22:45:22.062Z,42.67
2017-09-04T22:47:54.355Z,42.86
2017-09-04T22:50:26.162Z,42.91
2017-09-04T22:52:58.092Z,43.03
2017-09-04T22:55:29.644Z,43.00
2017-09-04T22:58:01.196Z,43.21
2017-09-04T23:00:33.432Z,43.34
2017-09-04T23:03:05.965Z,43.31
2017-09-04T23:05:39.520Z,43.37
2017-09-04T23:08:12.475Z,43.46
2017-09-04T23:10:45.499Z,43.34
2017-09-04T23:13:17.686Z,43.31
2017-09-04T23:15:49.614Z,43.66
2017-09-04T23:18:21.152Z,43.33
2017-09-04T23:20:52.864Z,43.68
2017-09-04T23:23:24.051Z,43.10
2017-09-04T23:25:55.617Z,42.75
2017-09-04T23:28:27.373Z,42.88
2017-09-04T23:30:58.548Z,42.71
2017-09-04T23:33:30.517Z,42.78
2017-09-04T23:36:02.378Z,42.55
2017-09-04T23:38:34.435Z,42.64
2017-09-04T23:41:06.344Z,42.48
2017-09-04T23:43:40.036Z,42.49
2017-09-04T23:46:11.762Z,42.63
2017-09-04T23:48:44.829Z,42.29
2017-09-04T23:51:16.513Z,42.31
2017-09-04T23:53:48.358Z,42.48
2017-09-04T23:56:19.798Z,42.34
2017-09-04T23:58:51.388Z,42.37
